createdAt,value
2018-09-12T00:07:27.260Z,74.4
2018-09-12T00:17:41.480Z,76.5
2018-09-12T00:27:57.094Z,74.8
2018-09-12T00:38:11.974Z,73.5
2018-09-12T00:48:27.583Z,73.5
2018-09-12T00:58:42.290Z,74.5
2018-09-12T01:08:56.398Z,74.9
2018-09-12T01:19:10.310Z,72.2
2018-09-12T01:29:25.706Z,69.1
2018-09-12T01:39:40.409Z,65.2
2018-09-12T01:49:54.953Z,63.8
2018-09-12T02:00:09.643Z,62.2
2018-09-12T02:10:24.283Z,62.8
2018-09-12T02:20:39.945Z,60.1
2018-09-12T02:30:55.144Z,62.8
2018-09-12T02:41:10.469Z,62.6
2018-09-12T02:51:25.790Z,63.1
2018-09-12T03:01:39.579Z,60
2018-09-12T03:11:55.141Z,58.2
2018-09-12T03:22:09.286Z,53.2
2018-09-12T03:32:23.884Z,52.4
2018-09-12T03:42:38.363Z,52
2018-09-12T03:52:53.689Z,49.3
2018-09-12T04:03:07.944Z,43.1
2018-09-12T04:13:23.021Z,37.4
2018-09-12T04:23:38.230Z,33.2
2018-09-12T04:33:52.543Z,33.6
2018-09-12T04:44:06.249Z,34.5
2018-09-12T04:54:21.421Z,34.8
2018-09-12T05:04:35.328Z,37.9
2018-09-12T05:14:49.152Z,38.4
2018-09-12T05:25:03.286Z,35.2
2018-09-12T05:35:18.512Z,30.6
2018-09-12T05:45:33.020Z,34.5
2018-09-12T05:55:47.680Z,36
2018-09-12T06:06:02.506Z,35.7
2018-09-12T06:16:16.838Z,37.1
2018-09-12T06:26:30.559Z,39
2018-09-12T06:36:46.190Z,39.7
2018-09-12T06:47:00.226Z,41
2018-09-12T06:57:14.050Z,41.2
2018-09-12T07:07:29.045Z,41.6
2018-09-12T07:17:44.182Z,42
2018-09-12T07:27:58.559Z,43.3
2018-09-12T07:38:13.154Z,43
2018-09-12T07:48:27.122Z,46.2
2018-09-12T07:58:42.648Z,55.6
2018-09-12T08:08:56.678Z,69.8
2018-09-12T08:19:10.731Z,50.1
2018-09-12T08:29:25.927Z,60.8
2018-09-12T08:39:41.633Z,72
2018-09-12T08:49:56.897Z,71
2018-09-12T09:00:12.552Z,69.1
2018-09-12T09:10:27.543Z,84.8
2018-09-12T09:20:43.184Z,67.7
2018-09-12T09:30:57.390Z,62.9
2018-09-12T09:41:12.351Z,62
2018-09-12T09:51:28.210Z,70.7
2018-09-12T10:01:42.422Z,72.1
2018-09-12T10:11:57.826Z,76.9
2018-09-12T10:22:12.843Z,78
2018-09-12T10:32:27.677Z,80.2
2018-09-12T10:42:42.596Z,47.8
2018-09-12T10:52:56.374Z,41
2018-09-12T11:03:11.546Z,48.4
2018-09-12T11:13:27.768Z,54.5
2018-09-12T11:23:41.054Z,47.8
2018-09-12T11:33:55.816Z,56.5
2018-09-12T11:44:10.797Z,65.9
2018-09-12T11:54:24.793Z,56
2018-09-12T12:04:40.085Z,35.4
2018-09-12T12:14:54.542Z,31.8
2018-09-12T12:25:08.386Z,44.5
2018-09-12T12:35:22.470Z,41
2018-09-12T12:45:37.501Z,31.4
2018-09-12T12:55:52.419Z,24.4
2018-09-12T13:06:08.004Z,19.2
2018-09-12T13:16:22.276Z,21.2
2018-09-12T13:26:37.896Z,23.3
2018-09-12T13:36:51.974Z,16.8
2018-09-12T13:47:06.965Z,12.5
2018-09-12T13:57:21.127Z,9
2018-09-12T14:07:35.698Z,6.6
2018-09-12T14:17:49.578Z,6.1
2018-09-12T14:28:04.369Z,5.3
2018-09-12T14:38:18.203Z,5.3
2018-09-12T14:48:32.293Z,5
2018-09-12T14:58:48.047Z,6.4
2018-09-12T15:09:03.036Z,7
2018-09-12T15:19:17.323Z,7.8
2018-09-12T15:29:32.376Z,8.7
2018-09-12T15:39:46.973Z,9.4
2018-09-12T15:50:02.076Z,9.1
2018-09-12T16:00:15.910Z,9.6
2018-09-12T16:10:29.944Z,13.2
2018-09-12T16:20:45.463Z,12.2
2018-09-12T16:30:59.312Z,11.5
2018-09-12T16:41:14.531Z,10.7
2018-09-12T16:51:30.073Z,9.1
2018-09-12T17:01:45.669Z,8.5
2018-09-12T17:12:01.346Z,9.7
2018-09-12T17:22:16.950Z,11.2
2018-09-12T17:32:31.950Z,12.5
2018-09-12T17:42:47.350Z,12.9
2018-09-12T17:53:02.969Z,12.2
2018-09-12T18:03:18.527Z,12.1
2018-09-12T18:13:33.047Z,10.4
2018-09-12T18:23:47.324Z,11.5
2018-09-12T18:34:03.054Z,14.7
2018-09-12T18:44:18.385Z,15.3
2018-09-12T18:54:33.093Z,16.2
2018-09-12T19:04:47.585Z,16.4
2018-09-12T19:15:01.707Z,17
2018-09-12T19:25:16.729Z,17
2018-09-12T19:35:30.493Z,19.8
2018-09-12T19:45:44.751Z,21
2018-09-12T19:56:00.092Z,21.1
2018-09-12T20:06:15.276Z,19.9
2018-09-12T20:16:30.435Z,20.8
2018-09-12T20:26:44.852Z,24.8
2018-09-12T20:36:59.160Z,25.5
2018-09-12T20:47:13.009Z,22.8
2018-09-12T20:57:28.707Z,21.2
2018-09-12T21:07:44.246Z,21.1
2018-09-12T21:17:58.397Z,25
2018-09-12T21:28:13.115Z,28.9
2018-09-12T21:38:28.732Z,31.2
2018-09-12T21:48:43.893Z,32.7
2018-09-12T21:58:58.753Z,32.4
2018-09-12T22:09:13.303Z,31.3
2018-09-12T22:19:27.222Z,25.6
2018-09-12T22:29:42.082Z,20.6
2018-09-12T22:39:55.892Z,16.7
2018-09-12T22:50:11.812Z,13.8
2018-09-12T23:00:26.810Z,11.3
2018-09-12T23:10:42.418Z,9.1
2018-09-12T23:20:56.285Z,9.5
2018-09-12T23:31:10.619Z,7.7
2018-09-12T23:41:24.271Z,6.9
2018-09-12T23:51:39.581Z,5.9
